CheckWX is a tool to help pilots better visualize weather data.  It is not intended as a substitute for an official pre-flight weather briefing.

19:43:44 UTC

KSAT TAF
San Antonio International Airport
San Antonio, Texas, USA
KSAT 191731Z 1918/2024 24007KT P6SM FEW040 FM200000 35005KT P6SM BKN050 FM200800 06005KT P6SM BKN012 FM201800 17011KT P6SM BKN035

Oct-19@
18:00 UTC

Oct-19 @ 18:00 UTC

Oct-20@
00:00 UTC

Oct-20 @ 00:00 UTC

KSAT 191731Z 1918/2024 24007KT P6SM FEW040
Wind
  • 240° at 7 KTS
Cloud Levels
  • Few at 4,000' AGL

Oct-20@
00:00 UTC

Oct-20 @ 00:00 UTC

Oct-20@
08:00 UTC

Oct-20 @ 08:00 UTC

FM200000 35005KT P6SM BKN050

From

From Standard forecast or significant change

Wind
  • 350° at 5 KTS
Cloud Levels
  • Broken at 5,000' AGL

Oct-20@
08:00 UTC

Oct-20 @ 08:00 UTC

Oct-20@
18:00 UTC

Oct-20 @ 18:00 UTC

FM200800 06005KT P6SM BKN012

From

From Standard forecast or significant change

Wind
  • 060° at 5 KTS
Cloud Levels
  • Broken at 1,200' AGL

Oct-20@
18:00 UTC

Oct-20 @ 18:00 UTC

Oct-21@
00:00 UTC

Oct-21 @ 00:00 UTC

FM201800 17011KT P6SM BKN035

From

From Standard forecast or significant change

Wind
  • 170° at 11 KTS
Cloud Levels
  • Broken at 3,500' AGL